sensor_id;sensor_type;location;lat;lon;timestamp;P1;durP1;ratioP1;P2;durP2;ratioP2
81901;SDS011;71369;50.796;3.290;2023-11-22T02:39:44;29.45;;;13.48;;
81901;SDS011;71369;50.796;3.290;2023-11-22T03:36:57;41.22;;;17.05;;
81901;SDS011;71369;50.796;3.290;2023-11-22T03:40:00;28.98;;;15.85;;
81901;SDS011;71369;50.796;3.290;2023-11-22T04:13:58;25.35;;;12.13;;
81901;SDS011;71369;50.796;3.290;2023-11-22T04:20:36;29.23;;;13.43;;
81901;SDS011;71369;50.796;3.290;2023-11-22T04:23:38;27.15;;;13.73;;
81901;SDS011;71369;50.796;3.290;2023-11-22T04:26:32;28.02;;;14.25;;
81901;SDS011;71369;50.796;3.290;2023-11-22T04:32:46;26.58;;;14.38;;
81901;SDS011;71369;50.796;3.290;2023-11-22T04:35:52;28.40;;;13.63;;
81901;SDS011;71369;50.796;3.290;2023-11-22T04:38:40;30.42;;;13.52;;
81901;SDS011;71369;50.796;3.290;2023-11-22T04:41:40;29.48;;;14.85;;
81901;SDS011;71369;50.796;3.290;2023-11-22T04:44:10;34.63;;;14.27;;
81901;SDS011;71369;50.796;3.290;2023-11-22T04:47:25;27.92;;;13.60;;
81901;SDS011;71369;50.796;3.290;2023-11-22T04:53:18;24.88;;;11.65;;
81901;SDS011;71369;50.796;3.290;2023-11-22T04:55:55;26.83;;;12.73;;
81901;SDS011;71369;50.796;3.290;2023-11-22T04:59:03;21.35;;;11.30;;
81901;SDS011;71369;50.796;3.290;2023-11-22T05:05:01;27.40;;;9.60;;
81901;SDS011;71369;50.796;3.290;2023-11-22T05:11:08;19.45;;;9.27;;
81901;SDS011;71369;50.796;3.290;2023-11-22T05:14:04;26.25;;;11.70;;
81901;SDS011;71369;50.796;3.290;2023-11-22T05:24:40;29.75;;;13.73;;
81901;SDS011;71369;50.796;3.290;2023-11-22T05:27:06;35.88;;;15.13;;
81901;SDS011;71369;50.796;3.290;2023-11-22T06:00:48;28.20;;;13.45;;
81901;SDS011;71369;50.796;3.290;2023-11-22T06:27:57;30.35;;;14.20;;
81901;SDS011;71369;50.796;3.290;2023-11-22T06:38:03;33.90;;;14.75;;
81901;SDS011;71369;50.796;3.290;2023-11-22T06:44:07;30.85;;;14.82;;
81901;SDS011;71369;50.796;3.290;2023-11-22T06:46:34;37.22;;;15.77;;
81901;SDS011;71369;50.796;3.290;2023-11-22T06:49:00;32.92;;;15.95;;
81901;SDS011;71369;50.796;3.290;2023-11-22T06:51:25;33.38;;;14.25;;
81901;SDS011;71369;50.796;3.290;2023-11-22T06:53:51;31.60;;;15.07;;
81901;SDS011;71369;50.796;3.290;2023-11-22T06:56:19;32.15;;;14.32;;
81901;SDS011;71369;50.796;3.290;2023-11-22T06:58:45;26.92;;;14.23;;
81901;SDS011;71369;50.796;3.290;2023-11-22T07:01:11;24.38;;;12.77;;
81901;SDS011;71369;50.796;3.290;2023-11-22T07:03:36;25.17;;;12.85;;
81901;SDS011;71369;50.796;3.290;2023-11-22T07:06:05;24.55;;;12.80;;
81901;SDS011;71369;50.796;3.290;2023-11-22T07:08:33;26.25;;;12.18;;
81901;SDS011;71369;50.796;3.290;2023-11-22T07:10:59;32.45;;;12.77;;
81901;SDS011;71369;50.796;3.290;2023-11-22T07:13:25;25.08;;;11.93;;
81901;SDS011;71369;50.796;3.290;2023-11-22T07:15:52;30.08;;;13.45;;
81901;SDS011;71369;50.796;3.290;2023-11-22T07:18:19;27.90;;;12.95;;
81901;SDS011;71369;50.796;3.290;2023-11-22T07:20:49;25.92;;;12.55;;
81901;SDS011;71369;50.796;3.290;2023-11-22T07:23:15;28.30;;;14.73;;
81901;SDS011;71369;50.796;3.290;2023-11-22T07:25:40;35.80;;;16.23;;
81901;SDS011;71369;50.796;3.290;2023-11-22T07:28:09;38.58;;;16.05;;
81901;SDS011;71369;50.796;3.290;2023-11-22T07:30:34;37.92;;;17.65;;
81901;SDS011;71369;50.796;3.290;2023-11-22T07:33:03;35.95;;;16.55;;
81901;SDS011;71369;50.796;3.290;2023-11-22T07:35:31;35.83;;;17.65;;
81901;SDS011;71369;50.796;3.290;2023-11-22T07:37:56;38.88;;;18.23;;
81901;SDS011;71369;50.796;3.290;2023-11-22T07:40:22;38.30;;;18.50;;
81901;SDS011;71369;50.796;3.290;2023-11-22T07:42:48;35.72;;;18.00;;
81901;SDS011;71369;50.796;3.290;2023-11-22T07:45:14;37.67;;;16.27;;
81901;SDS011;71369;50.796;3.290;2023-11-22T07:47:41;36.45;;;17.67;;
81901;SDS011;71369;50.796;3.290;2023-11-22T07:50:08;45.75;;;19.80;;
81901;SDS011;71369;50.796;3.290;2023-11-22T07:52:35;38.22;;;18.10;;
81901;SDS011;71369;50.796;3.290;2023-11-22T07:55:02;38.83;;;16.58;;
81901;SDS011;71369;50.796;3.290;2023-11-22T07:57:33;34.95;;;17.77;;
81901;SDS011;71369;50.796;3.290;2023-11-22T07:59:59;39.90;;;20.65;;
81901;SDS011;71369;50.796;3.290;2023-11-22T08:02:26;38.35;;;19.13;;
81901;SDS011;71369;50.796;3.290;2023-11-22T08:04:52;30.10;;;16.83;;
81901;SDS011;71369;50.796;3.290;2023-11-22T08:07:18;32.30;;;17.25;;
81901;SDS011;71369;50.796;3.290;2023-11-22T08:09:44;30.58;;;17.00;;
81901;SDS011;71369;50.796;3.290;2023-11-22T08:12:10;34.15;;;18.40;;
81901;SDS011;71369;50.796;3.290;2023-11-22T08:14:38;38.00;;;20.58;;
81901;SDS011;71369;50.796;3.290;2023-11-22T08:17:05;30.35;;;16.50;;
81901;SDS011;71369;50.796;3.290;2023-11-22T08:19:31;29.42;;;16.52;;
81901;SDS011;71369;50.796;3.290;2023-11-22T08:21:57;32.80;;;17.73;;
81901;SDS011;71369;50.796;3.290;2023-11-22T08:24:23;31.98;;;17.48;;
81901;SDS011;71369;50.796;3.290;2023-11-22T08:26:48;32.22;;;16.90;;
81901;SDS011;71369;50.796;3.290;2023-11-22T08:29:14;25.73;;;14.98;;
81901;SDS011;71369;50.796;3.290;2023-11-22T08:31:42;29.58;;;16.83;;
81901;SDS011;71369;50.796;3.290;2023-11-22T08:34:07;29.25;;;16.77;;
81901;SDS011;71369;50.796;3.290;2023-11-22T08:36:34;29.38;;;15.85;;
81901;SDS011;71369;50.796;3.290;2023-11-22T08:39:00;29.52;;;15.52;;
81901;SDS011;71369;50.796;3.290;2023-11-22T08:41:27;28.27;;;15.40;;
81901;SDS011;71369;50.796;3.290;2023-11-22T08:43:55;28.40;;;16.25;;
81901;SDS011;71369;50.796;3.290;2023-11-22T08:46:21;26.55;;;14.68;;
81901;SDS011;71369;50.796;3.290;2023-11-22T08:48:48;24.25;;;14.00;;
81901;SDS011;71369;50.796;3.290;2023-11-22T08:51:14;24.52;;;14.00;;
81901;SDS011;71369;50.796;3.290;2023-11-22T08:53:40;24.90;;;13.75;;
81901;SDS011;71369;50.796;3.290;2023-11-22T08:56:07;23.45;;;14.27;;
81901;SDS011;71369;50.796;3.290;2023-11-22T08:58:34;27.25;;;14.65;;
81901;SDS011;71369;50.796;3.290;2023-11-22T09:00:59;28.15;;;14.15;;
81901;SDS011;71369;50.796;3.290;2023-11-22T09:03:25;27.02;;;14.20;;
81901;SDS011;71369;50.796;3.290;2023-11-22T09:05:51;25.15;;;14.45;;
81901;SDS011;71369;50.796;3.290;2023-11-22T09:08:19;25.88;;;14.85;;
81901;SDS011;71369;50.796;3.290;2023-11-22T09:10:46;24.67;;;14.70;;
81901;SDS011;71369;50.796;3.290;2023-11-22T09:13:11;30.05;;;14.00;;
81901;SDS011;71369;50.796;3.290;2023-11-22T09:15:41;26.08;;;13.90;;
81901;SDS011;71369;50.796;3.290;2023-11-22T09:18:10;24.35;;;13.68;;
81901;SDS011;71369;50.796;3.290;2023-11-22T09:20:39;30.88;;;14.25;;
81901;SDS011;71369;50.796;3.290;2023-11-22T09:23:09;25.30;;;14.48;;
81901;SDS011;71369;50.796;3.290;2023-11-22T09:25:35;27.05;;;14.73;;
81901;SDS011;71369;50.796;3.290;2023-11-22T09:28:01;26.15;;;15.25;;
81901;SDS011;71369;50.796;3.290;2023-11-22T09:30:28;24.60;;;14.45;;
81901;SDS011;71369;50.796;3.290;2023-11-22T09:33:00;24.48;;;13.82;;
81901;SDS011;71369;50.796;3.290;2023-11-22T09:35:27;25.23;;;14.10;;
81901;SDS011;71369;50.796;3.290;2023-11-22T09:37:59;20.83;;;12.35;;
81901;SDS011;71369;50.796;3.290;2023-11-22T09:40:29;24.58;;;13.52;;
81901;SDS011;71369;50.796;3.290;2023-11-22T09:42:57;21.85;;;12.85;;
81901;SDS011;71369;50.796;3.290;2023-11-22T09:45:24;26.73;;;15.25;;
81901;SDS011;71369;50.796;3.290;2023-11-22T09:47:51;21.85;;;12.88;;
81901;SDS011;71369;50.796;3.290;2023-11-22T09:50:19;26.50;;;12.98;;
81901;SDS011;71369;50.796;3.290;2023-11-22T09:52:52;25.13;;;14.68;;
81901;SDS011;71369;50.796;3.290;2023-11-22T09:55:23;24.63;;;13.95;;
81901;SDS011;71369;50.796;3.290;2023-11-22T09:57:53;24.50;;;14.23;;
81901;SDS011;71369;50.796;3.290;2023-11-22T10:00:20;24.33;;;14.93;;
81901;SDS011;71369;50.796;3.290;2023-11-22T10:02:50;24.63;;;14.30;;
81901;SDS011;71369;50.796;3.290;2023-11-22T10:05:16;25.52;;;14.93;;
81901;SDS011;71369;50.796;3.290;2023-11-22T10:07:42;26.42;;;14.88;;
81901;SDS011;71369;50.796;3.290;2023-11-22T10:10:08;25.88;;;16.23;;
81901;SDS011;71369;50.796;3.290;2023-11-22T10:12:36;27.15;;;15.73;;
81901;SDS011;71369;50.796;3.290;2023-11-22T10:15:17;22.90;;;14.02;;
81901;SDS011;71369;50.796;3.290;2023-11-22T10:17:58;29.42;;;15.15;;
81901;SDS011;71369;50.796;3.290;2023-11-22T10:20:46;29.58;;;14.85;;
81901;SDS011;71369;50.796;3.290;2023-11-22T10:23:14;25.63;;;15.88;;
81901;SDS011;71369;50.796;3.290;2023-11-22T10:25:49;27.90;;;16.08;;
81901;SDS011;71369;50.796;3.290;2023-11-22T10:28:20;28.92;;;16.08;;
81901;SDS011;71369;50.796;3.290;2023-11-22T10:30:47;25.55;;;15.57;;
81901;SDS011;71369;50.796;3.290;2023-11-22T10:33:18;29.80;;;16.00;;
81901;SDS011;71369;50.796;3.290;2023-11-22T10:35:53;29.40;;;17.05;;
81901;SDS011;71369;50.796;3.290;2023-11-22T10:38:19;34.22;;;18.40;;
81901;SDS011;71369;50.796;3.290;2023-11-22T10:43:35;36.35;;;18.92;;
81901;SDS011;71369;50.796;3.290;2023-11-22T10:46:04;33.95;;;20.17;;
81901;SDS011;71369;50.796;3.290;2023-11-22T10:48:31;37.60;;;21.35;;
81901;SDS011;71369;50.796;3.290;2023-11-22T10:51:01;41.25;;;22.42;;
81901;SDS011;71369;50.796;3.290;2023-11-22T10:53:36;37.50;;;22.08;;
81901;SDS011;71369;50.796;3.290;2023-11-22T10:56:08;34.67;;;19.67;;
81901;SDS011;71369;50.796;3.290;2023-11-22T10:58:50;34.72;;;19.83;;
81901;SDS011;71369;50.796;3.290;2023-11-22T11:01:19;32.97;;;19.10;;
81901;SDS011;71369;50.796;3.290;2023-11-22T11:06:51;34.08;;;19.48;;
81901;SDS011;71369;50.796;3.290;2023-11-22T11:09:20;35.90;;;19.95;;
81901;SDS011;71369;50.796;3.290;2023-11-22T11:11:51;30.23;;;18.13;;
81901;SDS011;71369;50.796;3.290;2023-11-22T11:14:20;31.88;;;18.42;;
81901;SDS011;71369;50.796;3.290;2023-11-22T11:22:50;33.22;;;18.33;;
81901;SDS011;71369;50.796;3.290;2023-11-22T11:25:17;34.45;;;18.88;;
81901;SDS011;71369;50.796;3.290;2023-11-22T12:23:33;31.25;;;17.63;;
81901;SDS011;71369;50.796;3.290;2023-11-22T12:29:07;27.92;;;17.23;;
81901;SDS011;71369;50.796;3.290;2023-11-22T14:42:53;22.13;;;10.32;;
81901;SDS011;71369;50.796;3.290;2023-11-22T14:49:42;18.20;;;9.77;;
81901;SDS011;71369;50.796;3.290;2023-11-22T14:52:27;19.75;;;10.07;;
81901;SDS011;71369;50.796;3.290;2023-11-22T14:55:03;17.73;;;10.30;;
81901;SDS011;71369;50.796;3.290;2023-11-22T14:57:40;21.25;;;10.25;;
81901;SDS011;71369;50.796;3.290;2023-11-22T15:00:56;19.85;;;10.55;;
81901;SDS011;71369;50.796;3.290;2023-11-22T15:03:29;19.48;;;10.25;;
81901;SDS011;71369;50.796;3.290;2023-11-22T15:05:56;18.95;;;11.07;;
81901;SDS011;71369;50.796;3.290;2023-11-22T15:08:24;17.67;;;9.82;;
81901;SDS011;71369;50.796;3.290;2023-11-22T15:10:53;20.88;;;10.93;;
81901;SDS011;71369;50.796;3.290;2023-11-22T15:13:21;20.00;;;11.38;;
81901;SDS011;71369;50.796;3.290;2023-11-22T15:15:52;20.33;;;10.57;;
81901;SDS011;71369;50.796;3.290;2023-11-22T15:18:18;21.67;;;11.18;;
81901;SDS011;71369;50.796;3.290;2023-11-22T15:20:44;16.45;;;10.40;;
81901;SDS011;71369;50.796;3.290;2023-11-22T15:23:10;20.02;;;10.77;;
81901;SDS011;71369;50.796;3.290;2023-11-22T15:25:35;21.52;;;11.45;;
81901;SDS011;71369;50.796;3.290;2023-11-22T15:28:01;20.73;;;10.23;;
81901;SDS011;71369;50.796;3.290;2023-11-22T15:30:48;19.42;;;11.35;;
81901;SDS011;71369;50.796;3.290;2023-11-22T15:33:14;19.23;;;11.00;;
81901;SDS011;71369;50.796;3.290;2023-11-22T15:35:47;21.05;;;11.48;;
81901;SDS011;71369;50.796;3.290;2023-11-22T15:38:21;17.60;;;10.15;;
81901;SDS011;71369;50.796;3.290;2023-11-22T15:40:50;20.33;;;10.93;;
81901;SDS011;71369;50.796;3.290;2023-11-22T15:43:21;23.15;;;12.30;;
81901;SDS011;71369;50.796;3.290;2023-11-22T15:45:47;19.77;;;11.65;;
81901;SDS011;71369;50.796;3.290;2023-11-22T16:07:03;23.00;;;11.77;;
81901;SDS011;71369;50.796;3.290;2023-11-22T16:26:48;17.20;;;10.13;;
81901;SDS011;71369;50.796;3.290;2023-11-22T16:53:57;14.48;;;7.80;;
81901;SDS011;71369;50.796;3.290;2023-11-22T17:10:09;13.77;;;7.32;;
81901;SDS011;71369;50.796;3.290;2023-11-22T17:13:45;12.45;;;6.90;;
81901;SDS011;71369;50.796;3.290;2023-11-22T17:16:22;11.27;;;6.05;;
81901;SDS011;71369;50.796;3.290;2023-11-22T17:22:50;13.55;;;7.28;;
81901;SDS011;71369;50.796;3.290;2023-11-22T17:39:33;11.77;;;7.30;;
81901;SDS011;71369;50.796;3.290;2023-11-22T18:31:47;13.45;;;7.97;;
81901;SDS011;71369;50.796;3.290;2023-11-22T18:34:16;13.98;;;9.10;;
81901;SDS011;71369;50.796;3.290;2023-11-22T18:36:42;19.88;;;9.07;;
81901;SDS011;71369;50.796;3.290;2023-11-22T18:39:07;15.05;;;9.43;;
81901;SDS011;71369;50.796;3.290;2023-11-22T18:41:34;15.73;;;9.02;;
81901;SDS011;71369;50.796;3.290;2023-11-22T18:44:02;16.20;;;8.85;;
81901;SDS011;71369;50.796;3.290;2023-11-22T18:49:17;15.40;;;9.25;;
81901;SDS011;71369;50.796;3.290;2023-11-22T18:51:44;15.48;;;8.75;;
81901;SDS011;71369;50.796;3.290;2023-11-22T18:54:13;13.73;;;9.10;;
81901;SDS011;71369;50.796;3.290;2023-11-22T18:56:38;19.20;;;9.32;;
81901;SDS011;71369;50.796;3.290;2023-11-22T18:59:04;14.13;;;8.60;;
81901;SDS011;71369;50.796;3.290;2023-11-22T19:01:30;15.68;;;9.38;;
81901;SDS011;71369;50.796;3.290;2023-11-22T19:03:57;15.77;;;9.40;;
81901;SDS011;71369;50.796;3.290;2023-11-22T19:06:25;17.27;;;10.27;;
81901;SDS011;71369;50.796;3.290;2023-11-22T19:08:51;15.30;;;9.60;;
81901;SDS011;71369;50.796;3.290;2023-11-22T19:11:17;17.63;;;10.45;;
81901;SDS011;71369;50.796;3.290;2023-11-22T19:13:44;17.73;;;9.70;;
81901;SDS011;71369;50.796;3.290;2023-11-22T19:16:10;14.60;;;9.65;;
81901;SDS011;71369;50.796;3.290;2023-11-22T19:18:35;20.08;;;10.20;;
81901;SDS011;71369;50.796;3.290;2023-11-22T19:21:20;17.70;;;9.75;;
81901;SDS011;71369;50.796;3.290;2023-11-22T19:23:52;18.35;;;10.45;;
81901;SDS011;71369;50.796;3.290;2023-11-22T19:26:25;14.48;;;9.05;;
81901;SDS011;71369;50.796;3.290;2023-11-22T19:28:53;17.40;;;10.70;;
81901;SDS011;71369;50.796;3.290;2023-11-22T19:31:19;16.05;;;10.40;;
81901;SDS011;71369;50.796;3.290;2023-11-22T19:33:50;15.88;;;9.38;;
81901;SDS011;71369;50.796;3.290;2023-11-22T19:36:20;16.30;;;9.95;;
81901;SDS011;71369;50.796;3.290;2023-11-22T19:38:49;15.52;;;10.20;;
81901;SDS011;71369;50.796;3.290;2023-11-22T19:41:19;17.77;;;10.65;;
81901;SDS011;71369;50.796;3.290;2023-11-22T19:43:54;16.98;;;10.23;;
81901;SDS011;71369;50.796;3.290;2023-11-22T19:46:21;17.17;;;9.98;;
81901;SDS011;71369;50.796;3.290;2023-11-22T19:51:49;16.25;;;10.05;;
81901;SDS011;71369;50.796;3.290;2023-11-22T19:54:15;17.55;;;10.00;;
81901;SDS011;71369;50.796;3.290;2023-11-22T19:56:41;17.88;;;10.48;;
81901;SDS011;71369;50.796;3.290;2023-11-22T19:59:07;17.35;;;9.80;;
81901;SDS011;71369;50.796;3.290;2023-11-22T20:01:33;16.45;;;10.00;;
81901;SDS011;71369;50.796;3.290;2023-11-22T20:03:58;18.00;;;10.15;;
81901;SDS011;71369;50.796;3.290;2023-11-22T20:06:26;17.63;;;9.52;;
81901;SDS011;71369;50.796;3.290;2023-11-22T20:08:53;16.45;;;10.30;;
81901;SDS011;71369;50.796;3.290;2023-11-22T20:11:19;17.60;;;9.48;;
81901;SDS011;71369;50.796;3.290;2023-11-22T20:13:45;20.02;;;10.48;;
81901;SDS011;71369;50.796;3.290;2023-11-22T20:16:12;19.30;;;11.27;;
81901;SDS011;71369;50.796;3.290;2023-11-22T20:18:37;16.95;;;9.65;;
81901;SDS011;71369;50.796;3.290;2023-11-22T20:21:05;15.63;;;9.68;;
81901;SDS011;71369;50.796;3.290;2023-11-22T20:23:31;15.32;;;9.93;;
81901;SDS011;71369;50.796;3.290;2023-11-22T20:25:57;16.33;;;9.80;;
81901;SDS011;71369;50.796;3.290;2023-11-22T20:28:24;13.73;;;9.15;;
81901;SDS011;71369;50.796;3.290;2023-11-22T20:30:50;15.55;;;9.15;;
81901;SDS011;71369;50.796;3.290;2023-11-22T20:33:16;16.17;;;8.52;;
81901;SDS011;71369;50.796;3.290;2023-11-22T20:35:43;14.50;;;7.82;;
81901;SDS011;71369;50.796;3.290;2023-11-22T20:38:08;13.38;;;8.65;;
81901;SDS011;71369;50.796;3.290;2023-11-22T20:40:37;14.57;;;9.25;;
81901;SDS011;71369;50.796;3.290;2023-11-22T20:43:03;14.27;;;8.45;;
81901;SDS011;71369;50.796;3.290;2023-11-22T20:45:29;18.63;;;9.35;;
81901;SDS011;71369;50.796;3.290;2023-11-22T20:47:54;14.20;;;8.02;;
81901;SDS011;71369;50.796;3.290;2023-11-22T20:50:20;14.43;;;8.98;;
81901;SDS011;71369;50.796;3.290;2023-11-22T20:52:48;13.82;;;8.77;;
81901;SDS011;71369;50.796;3.290;2023-11-22T20:55:15;16.92;;;8.50;;
81901;SDS011;71369;50.796;3.290;2023-11-22T20:57:41;17.38;;;8.73;;
81901;SDS011;71369;50.796;3.290;2023-11-22T21:00:07;16.08;;;9.27;;
81901;SDS011;71369;50.796;3.290;2023-11-22T21:02:49;16.88;;;7.90;;
81901;SDS011;71369;50.796;3.290;2023-11-22T21:08:44;16.00;;;9.30;;
81901;SDS011;71369;50.796;3.290;2023-11-22T21:14:13;13.10;;;7.00;;
81901;SDS011;71369;50.796;3.290;2023-11-22T21:16:46;11.77;;;7.22;;
81901;SDS011;71369;50.796;3.290;2023-11-22T21:19:29;11.50;;;7.27;;
81901;SDS011;71369;50.796;3.290;2023-11-22T21:22:18;13.05;;;7.15;;
81901;SDS011;71369;50.796;3.290;2023-11-22T21:24:57;13.40;;;8.18;;
81901;SDS011;71369;50.796;3.290;2023-11-22T21:34:11;12.02;;;7.45;;
81901;SDS011;71369;50.796;3.290;2023-11-22T21:36:48;13.40;;;7.30;;
81901;SDS011;71369;50.796;3.290;2023-11-22T21:39:28;13.38;;;7.80;;
81901;SDS011;71369;50.796;3.290;2023-11-22T21:45:24;11.57;;;7.72;;
81901;SDS011;71369;50.796;3.290;2023-11-22T21:48:12;15.52;;;8.57;;
81901;SDS011;71369;50.796;3.290;2023-11-22T21:50:43;12.40;;;7.30;;
81901;SDS011;71369;50.796;3.290;2023-11-22T21:53:25;13.85;;;7.47;;
81901;SDS011;71369;50.796;3.290;2023-11-22T21:55:54;14.73;;;8.93;;
81901;SDS011;71369;50.796;3.290;2023-11-22T21:58:20;15.25;;;7.75;;
81901;SDS011;71369;50.796;3.290;2023-11-22T22:00:47;14.20;;;7.70;;
81901;SDS011;71369;50.796;3.290;2023-11-22T22:03:17;15.15;;;8.07;;
81901;SDS011;71369;50.796;3.290;2023-11-22T22:05:46;15.15;;;8.77;;
81901;SDS011;71369;50.796;3.290;2023-11-22T22:08:14;15.25;;;8.43;;
81901;SDS011;71369;50.796;3.290;2023-11-22T22:10:41;17.13;;;8.80;;
81901;SDS011;71369;50.796;3.290;2023-11-22T22:13:11;15.68;;;7.85;;
81901;SDS011;71369;50.796;3.290;2023-11-22T22:15:40;13.95;;;7.88;;
81901;SDS011;71369;50.796;3.290;2023-11-22T22:18:06;17.48;;;8.50;;
81901;SDS011;71369;50.796;3.290;2023-11-22T22:20:37;16.37;;;8.90;;
81901;SDS011;71369;50.796;3.290;2023-11-22T22:23:27;16.30;;;7.93;;
81901;SDS011;71369;50.796;3.290;2023-11-22T22:25:53;12.90;;;8.32;;
81901;SDS011;71369;50.796;3.290;2023-11-22T22:28:21;14.50;;;8.55;;
81901;SDS011;71369;50.796;3.290;2023-11-22T22:30:53;14.63;;;9.18;;
81901;SDS011;71369;50.796;3.290;2023-11-22T22:33:25;13.35;;;8.50;;
81901;SDS011;71369;50.796;3.290;2023-11-22T22:35:55;14.50;;;8.38;;
81901;SDS011;71369;50.796;3.290;2023-11-22T22:38:24;14.93;;;9.15;;
81901;SDS011;71369;50.796;3.290;2023-11-22T22:40:52;15.43;;;9.02;;
81901;SDS011;71369;50.796;3.290;2023-11-22T22:43:24;15.13;;;8.13;;
81901;SDS011;71369;50.796;3.290;2023-11-22T22:45:52;17.65;;;8.20;;
81901;SDS011;71369;50.796;3.290;2023-11-22T22:48:21;13.73;;;7.68;;
81901;SDS011;71369;50.796;3.290;2023-11-22T22:50:47;15.73;;;8.05;;
81901;SDS011;71369;50.796;3.290;2023-11-22T22:53:13;13.18;;;8.98;;
81901;SDS011;71369;50.796;3.290;2023-11-22T22:55:38;14.05;;;8.73;;
81901;SDS011;71369;50.796;3.290;2023-11-22T22:58:06;16.63;;;8.30;;
81901;SDS011;71369;50.796;3.290;2023-11-22T23:00:32;16.63;;;9.27;;
81901;SDS011;71369;50.796;3.290;2023-11-22T23:03:08;14.30;;;8.45;;
81901;SDS011;71369;50.796;3.290;2023-11-22T23:05:37;14.88;;;8.70;;
81901;SDS011;71369;50.796;3.290;2023-11-22T23:08:04;16.45;;;8.43;;
81901;SDS011;71369;50.796;3.290;2023-11-22T23:10:31;16.52;;;8.75;;
81901;SDS011;71369;50.796;3.290;2023-11-22T23:12:59;17.70;;;8.63;;
81901;SDS011;71369;50.796;3.290;2023-11-22T23:17:59;17.95;;;9.32;;
81901;SDS011;71369;50.796;3.290;2023-11-22T23:20:28;16.98;;;10.63;;
81901;SDS011;71369;50.796;3.290;2023-11-22T23:22:55;14.20;;;8.75;;
81901;SDS011;71369;50.796;3.290;2023-11-22T23:25:21;14.82;;;9.40;;
81901;SDS011;71369;50.796;3.290;2023-11-22T23:27:48;17.42;;;9.90;;
81901;SDS011;71369;50.796;3.290;2023-11-22T23:30:41;14.98;;;9.63;;
81901;SDS011;71369;50.796;3.290;2023-11-22T23:33:08;16.83;;;9.50;;
81901;SDS011;71369;50.796;3.290;2023-11-22T23:36:17;17.52;;;10.82;;
81901;SDS011;71369;50.796;3.290;2023-11-22T23:42:49;21.10;;;10.25;;
81901;SDS011;71369;50.796;3.290;2023-11-22T23:45:44;18.15;;;9.90;;
81901;SDS011;71369;50.796;3.290;2023-11-22T23:48:24;14.85;;;9.75;;
81901;SDS011;71369;50.796;3.290;2023-11-22T23:51:06;19.98;;;9.82;;
81901;SDS011;71369;50.796;3.290;2023-11-22T23:53:52;18.60;;;10.30;;
81901;SDS011;71369;50.796;3.290;2023-11-22T23:56:48;16.83;;;10.65;;
81901;SDS011;71369;50.796;3.290;2023-11-22T23:59:18;18.25;;;10.82;;
